Time;durP1;ratioP1;P1;durP2;ratioP2;P2;SDS_P1;SDS_P2;PMS_P1;PMS_P2;Temp;Humidity;BMP_temperature;BMP_pressure;BME280_temperature;BME280_humidity;BME280_pressure;Samples;Min_cycle;Max_cycle;Signal;HPM_P1;HPM_P2
2021/07/29 00:02:01;;;;;;;;;;;14.40;99.90;;;;;;5077616;28;20006;-89
2021/07/29 00:04:28;;;;;;;;;;;14.40;99.90;;;;;;5077630;28;20294;-87
2021/07/29 00:06:54;;;;;;;;;;;14.40;99.90;;;;;;5077434;28;19915;-88
2021/07/29 00:09:19;;;;;;;;;;;14.40;99.90;;;;;;5075151;28;19912;-87
2021/07/29 00:11:45;;;;;;;;;;;14.40;99.90;;;;;;5057331;28;20066;-88
2021/07/29 00:14:10;;;;;;;;;;;14.40;99.90;;;;;;5057085;28;20023;-88
2021/07/29 00:16:48;;;;;;;;;;;14.30;99.90;;;;;;5056763;28;19915;-87
2021/07/29 00:19:14;;;;;;;;;;;14.40;99.90;;;;;;5056259;28;19908;-87
2021/07/29 00:21:40;;;;;;;;;;;14.40;99.90;;;;;;5074739;28;19931;-87
2021/07/29 00:24:05;;;;;;;;;;;14.40;99.90;;;;;;5056799;28;20511;-88
2021/07/29 00:26:31;;;;;;;;;;;14.40;99.90;;;;;;5074960;28;20314;-89
2021/07/29 00:28:57;;;;;;;;;;;14.40;99.90;;;;;;5056475;28;19908;-88
2021/07/29 00:31:29;;;;;;;;;;;14.40;99.90;;;;;;5073986;28;19915;-86
2021/07/29 00:33:54;;;;;;;;;;;14.40;99.90;;;;;;5056056;28;19958;-87
2021/07/29 00:36:23;;;;;;;;;;;14.40;99.90;;;;;;5056264;28;19912;-87
2021/07/29 00:38:49;;;;;;;;;;;14.40;99.90;;;;;;5073865;28;19912;-86
2021/07/29 00:41:14;;;;;;;;;;;14.40;99.90;;;;;;5055754;28;20259;-87
2021/07/29 00:43:40;;;;;;;;;;;14.40;99.90;;;;;;5055845;28;19916;-88
2021/07/29 00:46:06;;;;;;;;;;;14.40;99.90;;;;;;5056306;28;19908;-87
2021/07/29 00:48:32;;;;;;;;;;;14.40;99.90;;;;;;5063312;28;20378;-87
2021/07/29 00:50:57;;;;;;;;;;;14.40;99.90;;;;;;5076485;28;20013;-87
2021/07/29 00:53:23;;;;;;;;;;;14.40;99.90;;;;;;5093101;28;19955;-86
2021/07/29 00:55:49;;;;;;;;;;;14.40;99.90;;;;;;5093192;28;19955;-87
2021/07/29 00:58:14;;;;;;;;;;;14.40;99.90;;;;;;5093995;28;19948;-87
2021/07/29 01:00:40;;;;;;;;;;;14.40;99.90;;;;;;5076295;28;20324;-86
2021/07/29 01:03:05;;;;;;;;;;;14.40;99.90;;;;;;5075894;28;19908;-87
2021/07/29 01:05:31;;;;;;;;;;;14.40;99.90;;;;;;5094343;28;19919;-87
2021/07/29 01:07:56;;;;;;;;;;;14.40;99.90;;;;;;5093965;28;19908;-86
2021/07/29 01:10:22;;;;;;;;;;;14.40;99.90;;;;;;5076123;28;19919;-87
2021/07/29 01:12:47;;;;;;;;;;;14.40;99.90;;;;;;5094101;28;19908;-88
2021/07/29 01:15:13;;;;;;;;;;;14.40;99.90;;;;;;5094005;28;19917;-88
2021/07/29 01:17:38;;;;;;;;;;;14.40;99.90;;;;;;5093605;28;20358;-87
2021/07/29 01:20:04;;;;;;;;;;;14.30;99.90;;;;;;5075884;28;19915;-88
2021/07/29 01:22:30;;;;;;;;;;;14.40;99.90;;;;;;5075807;28;19908;-88
2021/07/29 01:24:56;;;;;;;;;;;14.40;99.90;;;;;;5093885;28;19909;-88
2021/07/29 01:27:21;;;;;;;;;;;14.30;99.90;;;;;;5075875;28;19918;-87
2021/07/29 01:29:47;;;;;;;;;;;14.30;99.90;;;;;;5075735;28;19908;-88
2021/07/29 01:32:13;;;;;;;;;;;14.30;99.90;;;;;;5075090;28;19953;-87
2021/07/29 01:34:38;;;;;;;;;;;14.30;99.90;;;;;;5075461;28;19908;-88
2021/07/29 01:37:04;;;;;;;;;;;14.20;99.90;;;;;;5075585;28;19916;-87
2021/07/29 01:39:29;;;;;;;;;;;14.20;99.90;;;;;;5075510;28;20321;-88
2021/07/29 01:41:55;;;;;;;;;;;14.20;99.90;;;;;;5093926;28;19915;-88
2021/07/29 01:44:21;;;;;;;;;;;14.10;99.90;;;;;;5075296;28;19916;-88
2021/07/29 01:46:46;;;;;;;;;;;14.10;99.90;;;;;;5075657;28;20003;-88
2021/07/29 01:49:12;;;;;;;;;;;14.00;99.90;;;;;;5075338;28;19912;-88
2021/07/29 01:51:37;;;;;;;;;;;14.00;99.90;;;;;;5075454;28;19908;-86
2021/07/29 01:54:02;;;;;;;;;;;13.90;99.90;;;;;;5075334;28;19909;-87
2021/07/29 01:56:28;;;;;;;;;;;13.90;99.90;;;;;;5075339;28;19908;-87
2021/07/29 01:58:54;;;;;;;;;;;13.90;99.90;;;;;;5093240;28;19909;-88
2021/07/29 02:01:20;;;;;;;;;;;13.90;99.90;;;;;;5075277;28;19931;-88
2021/07/29 02:03:47;;;;;;;;;;;13.80;99.90;;;;;;5075192;28;19915;-88
2021/07/29 02:06:12;;;;;;;;;;;13.80;99.90;;;;;;5075415;28;20646;-88
2021/07/29 02:08:37;;;;;;;;;;;13.80;99.90;;;;;;5075261;28;19908;-88
2021/07/29 02:11:03;;;;;;;;;;;13.80;99.90;;;;;;5075155;28;20316;-88
2021/07/29 02:13:29;;;;;;;;;;;13.80;99.90;;;;;;5093474;28;19908;-88
2021/07/29 02:15:54;;;;;;;;;;;13.80;99.90;;;;;;5074787;28;19908;-88
2021/07/29 02:18:20;;;;;;;;;;;13.80;99.90;;;;;;5075077;28;19969;-88
2021/07/29 02:20:45;;;;;;;;;;;13.80;99.90;;;;;;5075068;28;19909;-88
2021/07/29 02:23:11;;;;;;;;;;;13.80;99.90;;;;;;5075245;28;20287;-88
2021/07/29 02:25:36;;;;;;;;;;;13.80;99.90;;;;;;5074958;28;19912;-88
2021/07/29 02:28:02;;;;;;;;;;;13.70;99.90;;;;;;5074859;28;19912;-88
2021/07/29 02:30:27;;;;;;;;;;;13.70;99.90;;;;;;5074773;28;19937;-88
2021/07/29 02:32:53;;;;;;;;;;;13.70;99.90;;;;;;5074717;28;19964;-88
2021/07/29 02:35:18;;;;;;;;;;;13.70;99.90;;;;;;5074856;28;19923;-88
2021/07/29 02:37:44;;;;;;;;;;;13.70;99.90;;;;;;5092753;28;19994;-88
2021/07/29 02:40:09;;;;;;;;;;;13.70;99.90;;;;;;5074661;28;20454;-88
2021/07/29 02:42:35;;;;;;;;;;;13.70;99.90;;;;;;5075347;28;19965;-88
2021/07/29 02:45:00;;;;;;;;;;;13.70;99.90;;;;;;5096874;28;19947;-89
2021/07/29 02:47:26;;;;;;;;;;;13.70;99.90;;;;;;5078591;28;19998;-88
2021/07/29 02:49:51;;;;;;;;;;;13.70;99.90;;;;;;5078538;28;19912;-88
2021/07/29 02:52:17;;;;;;;;;;;13.70;99.90;;;;;;5078416;28;20433;-88
2021/07/29 02:54:44;;;;;;;;;;;13.80;99.90;;;;;;5078425;28;19908;-89
2021/07/29 02:57:09;;;;;;;;;;;13.80;99.90;;;;;;5078379;28;19935;-88
2021/07/29 02:59:35;;;;;;;;;;;13.80;99.90;;;;;;5078348;28;19908;-88
2021/07/29 03:02:00;;;;;;;;;;;13.80;99.90;;;;;;5078285;28;19914;-88
2021/07/29 03:04:26;;;;;;;;;;;13.80;99.90;;;;;;5078301;28;19912;-88
2021/07/29 03:06:52;;;;;;;;;;;13.80;99.90;;;;;;5096347;28;20015;-88
2021/07/29 03:09:17;;;;;;;;;;;13.80;99.90;;;;;;5078034;28;19908;-88
2021/07/29 03:11:42;;;;;;;;;;;13.90;99.90;;;;;;5078086;28;19958;-88
2021/07/29 03:14:08;;;;;;;;;;;13.90;99.90;;;;;;5077910;28;19947;-87
2021/07/29 03:16:33;;;;;;;;;;;13.90;99.90;;;;;;5078026;28;19926;-88
2021/07/29 03:19:01;;;;;;;;;;;13.80;99.90;;;;;;5096141;28;20256;-87
2021/07/29 03:21:27;;;;;;;;;;;13.90;99.90;;;;;;5096141;28;20270;-88
2021/07/29 03:23:52;;;;;;;;;;;13.90;99.90;;;;;;5096149;28;19915;-88
2021/07/29 03:26:18;;;;;;;;;;;13.90;99.90;;;;;;5077970;28;19908;-87
2021/07/29 03:28:43;;;;;;;;;;;13.90;99.90;;;;;;5095868;28;19908;-87
2021/07/29 03:31:09;;;;;;;;;;;13.90;99.90;;;;;;5077686;28;19908;-88
2021/07/29 03:33:34;;;;;;;;;;;13.90;99.90;;;;;;5095767;28;19908;-88
2021/07/29 03:36:00;;;;;;;;;;;13.90;99.90;;;;;;5077586;28;20327;-87
2021/07/29 03:38:25;;;;;;;;;;;13.90;99.90;;;;;;5077511;28;19912;-88
2021/07/29 03:40:52;;;;;;;;;;;13.90;99.90;;;;;;5077514;28;19915;-88
2021/07/29 03:43:17;;;;;;;;;;;13.90;99.90;;;;;;5077414;28;19916;-88
2021/07/29 03:45:44;;;;;;;;;;;13.80;99.90;;;;;;5077286;28;19908;-86
2021/07/29 03:48:10;;;;;;;;;;;13.90;99.90;;;;;;5095466;28;19914;-87
2021/07/29 03:50:37;;;;;;;;;;;13.80;99.90;;;;;;5077267;28;19912;-88
2021/07/29 03:53:03;;;;;;;;;;;13.80;99.90;;;;;;5077443;28;19953;-88
2021/07/29 03:55:29;;;;;;;;;;;13.90;99.90;;;;;;5076493;28;19981;-87
2021/07/29 03:57:54;;;;;;;;;;;13.90;99.90;;;;;;5077094;28;20522;-87
2021/07/29 04:00:20;;;;;;;;;;;13.90;99.90;;;;;;5077098;28;19959;-87
2021/07/29 04:02:45;;;;;;;;;;;13.90;99.90;;;;;;5077233;28;19915;-88
2021/07/29 04:05:11;;;;;;;;;;;13.90;99.90;;;;;;5077253;28;19908;-88
2021/07/29 04:07:36;;;;;;;;;;;13.80;99.90;;;;;;5077091;28;19909;-88
2021/07/29 04:10:03;;;;;;;;;;;13.80;99.90;;;;;;5076893;28;19997;-88
2021/07/29 04:12:28;;;;;;;;;;;13.80;99.90;;;;;;5076928;28;19914;-88
2021/07/29 04:14:54;;;;;;;;;;;13.80;99.90;;;;;;5076907;28;19999;-89
2021/07/29 04:17:19;;;;;;;;;;;13.80;99.90;;;;;;5076793;28;20266;-88
2021/07/29 04:19:45;;;;;;;;;;;13.90;99.90;;;;;;5076801;28;19912;-88
2021/07/29 04:22:11;;;;;;;;;;;13.90;99.90;;;;;;5094963;28;19958;-89
2021/07/29 04:24:37;;;;;;;;;;;13.90;99.90;;;;;;5076675;28;19959;-88
2021/07/29 04:27:03;;;;;;;;;;;13.90;99.90;;;;;;5076697;28;19947;-88
2021/07/29 04:29:31;;;;;;;;;;;13.90;99.90;;;;;;5076592;28;19915;-88
2021/07/29 04:31:57;;;;;;;;;;;14.00;99.90;;;;;;5076555;28;19977;-88
2021/07/29 04:34:22;;;;;;;;;;;14.00;99.90;;;;;;5076856;28;19908;-88
2021/07/29 04:36:48;;;;;;;;;;;14.10;99.90;;;;;;5076566;28;19908;-87
2021/07/29 04:39:14;;;;;;;;;;;14.10;99.90;;;;;;5076387;28;20382;-88
2021/07/29 04:41:40;;;;;;;;;;;14.20;99.90;;;;;;5094935;28;19940;-89
2021/07/29 04:44:07;;;;;;;;;;;14.30;99.90;;;;;;5076589;28;19931;-89
2021/07/29 04:46:34;;;;;;;;;;;14.40;99.90;;;;;;5076615;28;19915;-88
2021/07/29 04:49:00;;;;;;;;;;;14.50;99.90;;;;;;5076357;28;19957;-88
2021/07/29 04:51:25;;;;;;;;;;;14.60;99.90;;;;;;5094533;28;19908;-88
2021/07/29 04:53:51;;;;;;;;;;;14.70;99.90;;;;;;5076278;28;19942;-88
2021/07/29 04:56:16;;;;;;;;;;;14.80;99.90;;;;;;5076323;28;20263;-88
2021/07/29 04:58:42;;;;;;;;;;;14.90;99.90;;;;;;5076122;28;20332;-88
2021/07/29 05:01:07;;;;;;;;;;;15.00;99.90;;;;;;5094471;28;19934;-88
2021/07/29 05:03:33;;;;;;;;;;;15.10;99.90;;;;;;5076286;28;19915;-88
2021/07/29 05:06:01;;;;;;;;;;;15.30;99.90;;;;;;5075468;28;19962;-88
2021/07/29 05:08:27;;;;;;;;;;;15.30;99.90;;;;;;5076120;28;20359;-88
2021/07/29 05:10:53;;;;;;;;;;;15.40;99.90;;;;;;5076110;28;19908;-88
2021/07/29 05:13:18;;;;;;;;;;;15.50;99.90;;;;;;5076190;28;19909;-88
2021/07/29 05:15:43;;;;;;;;;;;15.60;99.90;;;;;;5075961;28;19978;-88
2021/07/29 05:18:09;;;;;;;;;;;15.70;99.90;;;;;;5075805;28;19912;-88
2021/07/29 05:20:34;;;;;;;;;;;15.80;99.90;;;;;;5092838;28;19908;-88
2021/07/29 05:23:00;;;;;;;;;;;15.90;99.90;;;;;;5092836;28;19961;-87
2021/07/29 05:25:25;;;;;;;;;;;16.00;99.90;;;;;;5092698;28;19909;-88
2021/07/29 05:27:51;;;;;;;;;;;16.10;99.90;;;;;;5094009;28;20091;-88
2021/07/29 05:30:17;;;;;;;;;;;16.30;99.90;;;;;;5075807;28;20487;-88
2021/07/29 05:32:43;;;;;;;;;;;16.40;99.90;;;;;;5076067;28;19947;-87
2021/07/29 05:35:08;;;;;;;;;;;16.50;99.90;;;;;;5093078;28;19915;-88
2021/07/29 05:37:34;;;;;;;;;;;16.60;99.90;;;;;;5092528;28;19919;-88
2021/07/29 05:40:00;;;;;;;;;;;16.70;99.90;;;;;;5092855;28;20483;-88
2021/07/29 05:42:25;;;;;;;;;;;16.80;99.90;;;;;;5092572;28;19912;-87
2021/07/29 05:44:51;;;;;;;;;;;16.80;99.90;;;;;;5092712;28;19919;-89
2021/07/29 05:47:16;;;;;;;;;;;16.90;99.90;;;;;;5092645;28;19908;-88
2021/07/29 05:49:42;;;;;;;;;;;17.00;99.90;;;;;;5075741;28;19997;-88
2021/07/29 05:52:07;;;;;;;;;;;17.00;99.90;;;;;;5092614;28;19915;-88
2021/07/29 05:54:33;;;;;;;;;;;17.00;99.90;;;;;;5075402;28;19912;-88
2021/07/29 05:56:58;;;;;;;;;;;17.10;99.90;;;;;;5092022;28;20020;-89
2021/07/29 05:59:24;;;;;;;;;;;17.10;99.90;;;;;;5091911;28;19908;-88
2021/07/29 06:01:49;;;;;;;;;;;17.20;99.90;;;;;;5075147;28;20010;-88
2021/07/29 06:04:15;;;;;;;;;;;17.20;99.90;;;;;;5091842;28;20374;-89
2021/07/29 06:06:40;;;;;;;;;;;17.20;99.90;;;;;;5091822;28;19908;-88
2021/07/29 06:09:06;;;;;;;;;;;17.10;99.90;;;;;;5091892;28;20012;-88
2021/07/29 06:11:32;;;;;;;;;;;17.10;99.90;;;;;;5091826;28;19946;-89
2021/07/29 06:14:01;;;;;;;;;;;17.10;99.90;;;;;;5091841;28;19908;-89
2021/07/29 06:16:26;;;;;;;;;;;17.20;99.90;;;;;;5091636;28;19908;-88
2021/07/29 06:19:39;;;;;;;;;;;17.50;99.90;;;;;;5087766;28;19923;-88
2021/07/29 06:21:38;;;;;;;;;;;17.70;99.90;;;;;;5085992;28;20286;-89
2021/07/29 06:24:03;;;;;;;;;;;17.80;99.90;;;;;;5079013;28;19915;-88
2021/07/29 06:26:29;;;;;;;;;;;17.90;99.90;;;;;;5079009;28;19915;-88
2021/07/29 06:28:54;;;;;;;;;;;18.20;99.90;;;;;;5078887;28;19993;-88
2021/07/29 06:31:20;;;;;;;;;;;18.30;99.90;;;;;;5078735;28;19908;-88
2021/07/29 06:33:46;;;;;;;;;;;18.30;99.90;;;;;;5096765;28;19912;-88
2021/07/29 06:36:11;;;;;;;;;;;18.20;99.90;;;;;;5078707;28;19927;-88
2021/07/29 06:38:38;;;;;;;;;;;18.10;99.90;;;;;;5078450;28;19912;-88
2021/07/29 06:41:05;;;;;;;;;;;18.10;99.90;;;;;;5078405;28;19916;-89
2021/07/29 06:43:30;;;;;;;;;;;18.10;99.90;;;;;;5078568;28;19916;-88
2021/07/29 06:46:01;;;;;;;;;;;18.10;99.90;;;;;;5078453;28;19954;-88
2021/07/29 06:48:26;;;;;;;;;;;18.20;99.90;;;;;;5078493;28;19914;-87
2021/07/29 06:50:52;;;;;;;;;;;18.30;99.90;;;;;;5078190;28;19999;-88
2021/07/29 06:53:18;;;;;;;;;;;18.40;99.90;;;;;;5095188;28;20435;-88
2021/07/29 06:55:43;;;;;;;;;;;18.50;99.90;;;;;;5096494;28;19951;-88
2021/07/29 06:58:09;;;;;;;;;;;18.70;99.90;;;;;;5095298;28;19935;-89
2021/07/29 07:00:34;;;;;;;;;;;19.30;99.90;;;;;;5078073;28;19908;-88
2021/07/29 07:03:00;;;;;;;;;;;20.20;99.90;;;;;;5078179;28;19909;-88
2021/07/29 07:05:25;;;;;;;;;;;21.10;99.90;;;;;;5095070;28;20358;-90
2021/07/29 07:07:51;;;;;;;;;;;21.70;99.90;;;;;;5095003;28;19908;-88
2021/07/29 07:10:16;;;;;;;;;;;22.40;99.90;;;;;;5096072;28;19931;-88
2021/07/29 07:12:42;;;;;;;;;;;23.10;99.90;;;;;;5094988;28;19947;-89
2021/07/29 07:15:07;;;;;;;;;;;23.60;99.90;;;;;;5094885;28;19995;-89
2021/07/29 07:17:33;;;;;;;;;;;24.10;99.90;;;;;;5077754;28;19912;-89
2021/07/29 07:20:00;;;;;;;;;;;24.10;99.90;;;;;;5094837;28;19912;-89
2021/07/29 07:22:25;;;;;;;;;;;24.50;99.90;;;;;;5094919;28;19908;-90
2021/07/29 07:24:51;;;;;;;;;;;24.90;99.90;;;;;;5077921;28;20006;-89
2021/07/29 07:27:16;;;;;;;;;;;25.10;99.90;;;;;;5094855;28;20289;-89
2021/07/29 07:29:42;;;;;;;;;;;25.20;99.90;;;;;;5093660;28;19919;-89
2021/07/29 07:32:07;;;;;;;;;;;25.10;99.90;;;;;;5077763;28;19908;-88
2021/07/29 07:34:33;;;;;;;;;;;25.30;99.90;;;;;;5094686;28;19908;-89
2021/07/29 07:36:58;;;;;;;;;;;25.10;99.90;;;;;;5077701;28;20263;-90
2021/07/29 07:39:24;;;;;;;;;;;25.00;99.90;;;;;;5094457;28;20003;-88
2021/07/29 07:41:50;;;;;;;;;;;24.80;99.90;;;;;;5077764;28;19908;-89
2021/07/29 07:44:16;;;;;;;;;;;24.40;99.90;;;;;;5094506;28;19916;-89
2021/07/29 07:46:41;;;;;;;;;;;24.00;99.90;;;;;;5094308;28;20286;-89
2021/07/29 07:49:12;;;;;;;;;;;23.50;99.90;;;;;;5094273;28;19931;-89
2021/07/29 07:51:42;;;;;;;;;;;23.10;99.90;;;;;;5094831;28;19999;-89
2021/07/29 07:54:08;;;;;;;;;;;22.90;99.90;;;;;;5078028;28;19908;-89
2021/07/29 07:56:33;;;;;;;;;;;22.60;99.90;;;;;;5095706;28;19914;-87
2021/07/29 07:58:58;;;;;;;;;;;22.30;99.90;;;;;;5096034;28;19913;-89
2021/07/29 08:01:24;;;;;;;;;;;21.90;99.90;;;;;;5108163;28;19909;-90
2021/07/29 08:03:49;;;;;;;;;;;21.60;99.90;;;;;;5119413;28;19963;-91
2021/07/29 08:06:15;;;;;;;;;;;21.50;99.90;;;;;;5119486;28;19911;-91
2021/07/29 08:08:42;;;;;;;;;;;21.40;99.90;;;;;;5119873;28;19900;-90
2021/07/29 08:11:08;;;;;;;;;;;21.30;99.90;;;;;;5091114;28;19958;-89
2021/07/29 08:13:33;;;;;;;;;;;21.60;99.90;;;;;;5091819;28;20308;-90
2021/07/29 08:15:59;;;;;;;;;;;21.90;99.90;;;;;;5099767;28;19908;-89
2021/07/29 08:18:25;;;;;;;;;;;21.90;99.90;;;;;;5094532;28;19913;-88
2021/07/29 08:20:55;;;;;;;;;;;21.70;99.90;;;;;;5093950;28;19923;-88
2021/07/29 08:23:20;;;;;;;;;;;21.70;99.90;;;;;;5071170;28;19908;-88
2021/07/29 08:25:46;;;;;;;;;;;21.70;99.90;;;;;;5057116;28;19908;-90
2021/07/29 08:28:13;;;;;;;;;;;22.10;99.90;;;;;;5090780;28;19919;-89
2021/07/29 08:30:39;;;;;;;;;;;22.50;99.90;;;;;;5058384;28;20003;-89
2021/07/29 08:33:08;;;;;;;;;;;23.00;99.90;;;;;;5071489;28;19952;-88
2021/07/29 08:35:36;;;;;;;;;;;23.00;99.90;;;;;;5090009;28;19951;-88
2021/07/29 08:38:01;;;;;;;;;;;23.10;99.90;;;;;;5071185;28;19919;-89
2021/07/29 08:40:29;;;;;;;;;;;23.30;99.90;;;;;;5081454;28;19936;-89
2021/07/29 08:42:55;;;;;;;;;;;23.90;99.90;;;;;;5076236;28;19955;-89
2021/07/29 08:45:21;;;;;;;;;;;24.60;99.90;;;;;;5076062;28;19959;-89
2021/07/29 08:47:47;;;;;;;;;;;25.30;99.90;;;;;;5075947;28;20254;-88
2021/07/29 08:50:12;;;;;;;;;;;25.70;99.90;;;;;;5075954;28;19943;-89
2021/07/29 08:52:38;;;;;;;;;;;26.10;99.90;;;;;;5094189;28;19915;-87
2021/07/29 08:55:04;;;;;;;;;;;26.20;99.30;;;;;;5076044;28;20003;-87
2021/07/29 08:57:30;;;;;;;;;;;26.50;99.50;;;;;;5081411;28;19912;-88
2021/07/29 08:59:56;;;;;;;;;;;26.80;99.30;;;;;;5073826;28;20003;-89
2021/07/29 09:02:23;;;;;;;;;;;27.10;97.90;;;;;;5056028;28;20001;-88
2021/07/29 09:05:04;;;;;;;;;;;27.00;97.80;;;;;;5056051;28;19980;-88
2021/07/29 09:07:29;;;;;;;;;;;26.80;96.80;;;;;;5058936;28;20370;-88
2021/07/29 09:09:55;;;;;;;;;;;27.00;96.70;;;;;;5073671;28;19908;-87
2021/07/29 09:12:21;;;;;;;;;;;26.70;96.50;;;;;;5073866;28;20363;-88
2021/07/29 09:14:48;;;;;;;;;;;26.30;96.70;;;;;;5055891;28;20325;-89
2021/07/29 09:17:14;;;;;;;;;;;26.00;98.70;;;;;;5073651;28;19963;-89
2021/07/29 09:19:40;;;;;;;;;;;26.10;99.10;;;;;;5055747;28;19963;-88
2021/07/29 09:22:07;;;;;;;;;;;26.30;96.80;;;;;;5055595;28;20333;-88
2021/07/29 09:24:32;;;;;;;;;;;26.30;97.60;;;;;;5073427;28;19913;-89
2021/07/29 09:26:59;;;;;;;;;;;26.50;97.40;;;;;;5055734;28;19915;-89
2021/07/29 09:29:28;;;;;;;;;;;26.70;96.10;;;;;;5055496;28;19962;-88
2021/07/29 09:32:03;;;;;;;;;;;26.80;95.70;;;;;;5055609;28;19915;-89
2021/07/29 09:34:49;;;;;;;;;;;26.80;97.00;;;;;;5055504;28;19954;-88
2021/07/29 09:37:16;;;;;;;;;;;26.90;95.70;;;;;;5056024;28;19912;-88
2021/07/29 09:39:41;;;;;;;;;;;26.70;95.80;;;;;;5093054;28;19962;-88
2021/07/29 09:42:21;;;;;;;;;;;26.80;97.70;;;;;;5055401;28;19916;-88
2021/07/29 09:44:51;;;;;;;;;;;27.20;98.00;;;;;;5055306;28;19912;-89
2021/07/29 09:47:18;;;;;;;;;;;27.20;94.60;;;;;;5054860;28;19908;-89
2021/07/29 09:49:44;;;;;;;;;;;27.30;94.80;;;;;;5054809;28;19908;-88
2021/07/29 09:52:09;;;;;;;;;;;26.70;94.00;;;;;;5054286;28;19986;-88
2021/07/29 09:54:36;;;;;;;;;;;26.30;94.90;;;;;;5072827;28;20357;-88
2021/07/29 09:57:01;;;;;;;;;;;26.20;96.50;;;;;;5054939;28;19909;-89
2021/07/29 09:59:27;;;;;;;;;;;26.60;95.90;;;;;;5072646;28;19908;-89
2021/07/29 10:01:53;;;;;;;;;;;26.90;94.60;;;;;;5055167;28;19908;-88
2021/07/29 10:04:23;;;;;;;;;;;26.70;94.50;;;;;;5073189;28;19915;-88
2021/07/29 10:06:50;;;;;;;;;;;26.60;94.40;;;;;;5055120;28;19916;-89
2021/07/29 10:09:17;;;;;;;;;;;26.00;93.90;;;;;;5068347;28;19908;-88
2021/07/29 10:11:45;;;;;;;;;;;25.70;94.30;;;;;;5057824;28;20424;-89
2021/07/29 10:14:11;;;;;;;;;;;26.00;95.90;;;;;;5054938;28;19955;-88
2021/07/29 10:16:43;;;;;;;;;;;26.30;94.70;;;;;;5054920;28;19908;-88
2021/07/29 10:19:08;;;;;;;;;;;26.00;93.60;;;;;;5055215;28;19912;-88
2021/07/29 10:21:38;;;;;;;;;;;25.40;94.20;;;;;;5055005;28;19908;-88
2021/07/29 10:24:04;;;;;;;;;;;25.10;96.00;;;;;;5055020;28;19987;-88
2021/07/29 10:26:30;;;;;;;;;;;25.30;95.50;;;;;;5055007;28;19909;-89
2021/07/29 10:29:19;;;;;;;;;;;25.60;94.70;;;;;;5054931;28;19916;-89
2021/07/29 10:31:49;;;;;;;;;;;25.50;95.50;;;;;;5046870;28;19909;-89
2021/07/29 10:34:28;;;;;;;;;;;25.50;95.80;;;;;;5054876;28;19955;-88
2021/07/29 10:36:55;;;;;;;;;;;25.80;96.30;;;;;;5072634;28;19909;-89
2021/07/29 10:39:44;;;;;;;;;;;26.20;94.30;;;;;;5060351;28;19908;-88
2021/07/29 10:42:24;;;;;;;;;;;26.30;95.60;;;;;;5074747;28;19908;-89
2021/07/29 10:44:49;;;;;;;;;;;26.80;95.40;;;;;;5074872;28;19908;-89
2021/07/29 10:47:33;;;;;;;;;;;27.00;94.10;;;;;;5091349;28;20060;-88
2021/07/29 10:50:01;;;;;;;;;;;27.10;94.00;;;;;;5092797;28;19935;-88
2021/07/29 10:52:28;;;;;;;;;;;27.50;94.00;;;;;;5074760;28;20003;-89
2021/07/29 10:54:55;;;;;;;;;;;27.70;93.50;;;;;;5091486;28;19908;-88
2021/07/29 10:57:22;;;;;;;;;;;27.80;92.00;;;;;;5074321;28;19954;-89
2021/07/29 10:59:49;;;;;;;;;;;27.90;92.20;;;;;;5074533;28;19916;-88
2021/07/29 11:02:20;;;;;;;;;;;27.80;91.60;;;;;;5074771;28;20496;-88
2021/07/29 11:04:53;;;;;;;;;;;27.80;92.60;;;;;;5094010;28;20382;-88
2021/07/29 11:07:19;;;;;;;;;;;28.00;93.00;;;;;;5078169;28;19908;-88
2021/07/29 11:09:45;;;;;;;;;;;28.20;92.00;;;;;;5096225;28;19908;-88
2021/07/29 11:12:15;;;;;;;;;;;28.20;90.00;;;;;;5078234;28;19999;-88
2021/07/29 11:14:41;;;;;;;;;;;28.20;90.00;;;;;;5078191;28;19954;-88
2021/07/29 11:17:07;;;;;;;;;;;28.00;92.70;;;;;;5077929;28;19908;-88
2021/07/29 11:19:43;;;;;;;;;;;27.80;91.40;;;;;;5096026;28;19908;-88
2021/07/29 11:22:08;;;;;;;;;;;27.20;90.50;;;;;;5077880;28;20351;-89
2021/07/29 11:24:34;;;;;;;;;;;26.80;91.40;;;;;;5094898;28;19916;-89
2021/07/29 11:27:01;;;;;;;;;;;26.70;91.90;;;;;;5077806;28;19908;-89
2021/07/29 11:29:27;;;;;;;;;;;26.90;93.40;;;;;;5077801;28;20278;-87
2021/07/29 11:31:56;;;;;;;;;;;27.40;93.10;;;;;;5096023;28;19916;-89
2021/07/29 11:34:29;;;;;;;;;;;27.70;92.20;;;;;;5077623;28;19908;-88
2021/07/29 11:36:55;;;;;;;;;;;27.90;91.70;;;;;;5077501;28;19908;-89
2021/07/29 11:39:20;;;;;;;;;;;28.00;91.20;;;;;;5094297;28;19908;-90
2021/07/29 11:41:53;;;;;;;;;;;28.10;91.60;;;;;;5077489;28;19930;-87
2021/07/29 11:44:19;;;;;;;;;;;27.90;90.40;;;;;;5077373;28;19923;-87
2021/07/29 11:46:51;;;;;;;;;;;27.40;89.40;;;;;;5077368;28;19908;-87
2021/07/29 11:49:16;;;;;;;;;;;27.10;92.00;;;;;;5066140;28;19908;-88
2021/07/29 11:51:42;;;;;;;;;;;27.30;91.90;;;;;;5065331;28;19920;-87
2021/07/29 11:54:20;;;;;;;;;;;27.00;90.60;;;;;;5057185;28;19966;-88
2021/07/29 11:56:47;;;;;;;;;;;26.80;90.70;;;;;;5075817;28;19908;-87
2021/07/29 11:59:13;;;;;;;;;;;26.70;90.50;;;;;;5077205;28;19945;-88
2021/07/29 12:01:46;;;;;;;;;;;26.90;90.70;;;;;;5073474;28;19908;-89
2021/07/29 12:04:11;;;;;;;;;;;26.60;91.60;;;;;;5069352;28;20399;-88
2021/07/29 12:06:37;;;;;;;;;;;26.20;91.70;;;;;;5093759;28;19963;-87
2021/07/29 12:09:02;;;;;;;;;;;26.10;92.90;;;;;;5095162;28;19919;-88
2021/07/29 12:11:29;;;;;;;;;;;26.00;92.70;;;;;;5076837;28;19908;-87
2021/07/29 12:13:55;;;;;;;;;;;25.90;92.20;;;;;;5076902;28;20502;-87
2021/07/29 12:16:39;;;;;;;;;;;25.80;91.60;;;;;;5092804;28;19909;-87
2021/07/29 12:19:05;;;;;;;;;;;25.70;92.40;;;;;;5094764;28;19912;-88
2021/07/29 12:21:33;;;;;;;;;;;25.80;93.00;;;;;;5093515;28;19931;-87
2021/07/29 12:23:59;;;;;;;;;;;26.10;92.40;;;;;;5094711;28;19908;-89
2021/07/29 12:26:24;;;;;;;;;;;26.00;91.90;;;;;;5093155;28;19915;-87
2021/07/29 12:28:50;;;;;;;;;;;25.90;91.80;;;;;;5093340;28;19956;-87
2021/07/29 12:31:26;;;;;;;;;;;25.80;92.50;;;;;;5093169;28;19908;-89
2021/07/29 12:33:53;;;;;;;;;;;25.70;92.40;;;;;;5076415;28;19909;-87
2021/07/29 12:36:20;;;;;;;;;;;25.50;93.20;;;;;;5094119;28;19912;-87
2021/07/29 12:38:46;;;;;;;;;;;25.70;92.90;;;;;;5075267;28;19920;-88
2021/07/29 12:41:27;;;;;;;;;;;26.00;93.00;;;;;;5068746;28;19981;-88
2021/07/29 12:44:04;;;;;;;;;;;26.60;93.40;;;;;;5076139;28;19924;-87
2021/07/29 12:46:30;;;;;;;;;;;27.10;93.00;;;;;;5075766;28;19989;-88
2021/07/29 12:48:58;;;;;;;;;;;27.60;92.50;;;;;;5092894;28;20519;-87
2021/07/29 12:51:38;;;;;;;;;;;27.80;90.80;;;;;;5093981;28;19912;-89
2021/07/29 12:54:04;;;;;;;;;;;28.00;91.00;;;;;;5076038;28;19908;-88
2021/07/29 12:56:29;;;;;;;;;;;27.60;89.20;;;;;;5075591;28;20027;-88
2021/07/29 12:58:55;;;;;;;;;;;27.20;91.60;;;;;;5075714;28;20007;-88
2021/07/29 13:01:20;;;;;;;;;;;27.00;91.80;;;;;;5093796;28;19914;-87
2021/07/29 13:03:46;;;;;;;;;;;26.90;91.70;;;;;;5093750;28;19950;-88
2021/07/29 13:06:12;;;;;;;;;;;26.90;91.30;;;;;;5075840;28;20483;-88
2021/07/29 13:08:37;;;;;;;;;;;26.90;90.80;;;;;;5089192;28;19908;-87
2021/07/29 13:11:03;;;;;;;;;;;26.60;91.20;;;;;;5063393;28;19908;-87
2021/07/29 13:13:33;;;;;;;;;;;26.60;93.40;;;;;;5073365;28;19999;-87
2021/07/29 13:15:59;;;;;;;;;;;26.90;92.00;;;;;;5073202;28;19962;-88
2021/07/29 13:18:25;;;;;;;;;;;27.20;90.60;;;;;;5055232;28;20011;-88
2021/07/29 13:20:51;;;;;;;;;;;27.30;91.20;;;;;;5055393;28;20331;-87
2021/07/29 13:23:17;;;;;;;;;;;27.10;90.00;;;;;;5055462;28;20001;-88
2021/07/29 13:25:44;;;;;;;;;;;26.90;90.10;;;;;;5055318;28;19916;-88
2021/07/29 13:28:10;;;;;;;;;;;26.80;91.50;;;;;;5072086;28;20003;-88
2021/07/29 13:30:36;;;;;;;;;;;26.60;90.60;;;;;;5055141;28;19948;-88
2021/07/29 13:33:01;;;;;;;;;;;26.30;91.10;;;;;;5055179;28;19909;-88
2021/07/29 13:35:27;;;;;;;;;;;26.20;91.70;;;;;;5055253;28;19956;-88
2021/07/29 13:37:52;;;;;;;;;;;25.90;90.80;;;;;;5061431;28;19924;-88
2021/07/29 13:40:18;;;;;;;;;;;25.80;92.20;;;;;;5083341;28;20294;-88
2021/07/29 13:42:47;;;;;;;;;;;26.10;91.70;;;;;;5074896;28;20389;-87
2021/07/29 13:45:16;;;;;;;;;;;26.30;90.70;;;;;;5093118;28;19957;-87
2021/07/29 13:47:45;;;;;;;;;;;26.20;90.50;;;;;;5074775;28;20401;-88
2021/07/29 13:50:11;;;;;;;;;;;26.40;91.80;;;;;;5075022;28;20374;-88
2021/07/29 13:52:36;;;;;;;;;;;26.80;91.40;;;;;;5092073;28;19908;-88
2021/07/29 13:55:02;;;;;;;;;;;27.20;90.90;;;;;;5091891;28;19973;-88
2021/07/29 13:57:28;;;;;;;;;;;27.10;90.60;;;;;;5091611;28;20438;-88
2021/07/29 13:59:54;;;;;;;;;;;27.10;91.50;;;;;;5091567;28;19954;-88
2021/07/29 14:02:19;;;;;;;;;;;27.30;91.20;;;;;;5091846;28;19962;-88
2021/07/29 14:04:45;;;;;;;;;;;27.10;91.10;;;;;;5074900;28;19912;-88
2021/07/29 14:07:11;;;;;;;;;;;27.10;92.20;;;;;;5092666;28;20388;-89
2021/07/29 14:09:36;;;;;;;;;;;27.60;92.40;;;;;;5066799;28;20264;-87
2021/07/29 14:12:02;;;;;;;;;;;28.10;92.30;;;;;;5074340;28;19912;-89
2021/07/29 14:14:27;;;;;;;;;;;28.40;90.50;;;;;;5091529;28;19944;-88